N512AC KDAL-KOKC
Flight info
| Callsign | N512AC |
|---|---|
| Flight time | 0h 58m |
| Altitude | 8000 |
| Route | TEX5 ZEMMA TSDEL3 |
| Aircraft | BE58/L-SBGR/L |
Departure
| Time | 2026-04-10 21:05 |
|---|---|
| Airport | Dallas Love Field (KDAL) |
Arrival
| Time | 2026-04-10 22:03 |
|---|---|
| Airport | OKC Will Rogers World Airport (KOKC) |
| Time | Latitude | Longitude | Altitude | Speed | Heading |
|---|---|---|---|---|---|
| 2026-04-10 20:46 | 32.85086 | -96.85752 | 476 ft | 0 kts | 271° |
| 2026-04-10 20:55 | 32.85061 | -96.85733 | 476 ft | 13 kts | 69° |
| 2026-04-10 20:56 | 32.85064 | -96.85642 | 476 ft | 10 kts | 131° |
| 2026-04-10 20:56 | 32.85012 | -96.85570 | 474 ft | 18 kts | 130° |
| 2026-04-10 20:56 | 32.84944 | -96.85460 | 476 ft | 8 kts | 70° |
| 2026-04-10 20:56 | 32.84961 | -96.85417 | 476 ft | 9 kts | 163° |
| 2026-04-10 20:57 | 32.84929 | -96.85434 | 472 ft | 3 kts | 210° |
| 2026-04-10 20:57 | 32.84906 | -96.85507 | 474 ft | 16 kts | 265° |
| 2026-04-10 20:57 | 32.84880 | -96.85670 | 476 ft | 17 kts | 278° |
| 2026-04-10 20:57 | 32.84909 | -96.85668 | 476 ft | 8 kts | 113° |
| 2026-04-10 20:58 | 32.84897 | -96.85566 | 476 ft | 9 kts | 86° |
| 2026-04-10 20:58 | 32.84925 | -96.85475 | 478 ft | 12 kts | 2° |
| 2026-04-10 20:58 | 32.85006 | -96.85568 | 476 ft | 23 kts | 332° |
| 2026-04-10 20:58 | 32.85036 | -96.85593 | 473 ft | 14 kts | 141° |
| 2026-04-10 20:59 | 32.84972 | -96.85513 | 473 ft | 0 kts | 130° |
| 2026-04-10 21:00 | 32.84969 | -96.85509 | 474 ft | 6 kts | 129° |
| 2026-04-10 21:00 | 32.84897 | -96.85420 | 466 ft | 15 kts | 121° |
| 2026-04-10 21:00 | 32.84872 | -96.85371 | 476 ft | 0 kts | 200° |
| 2026-04-10 21:00 | 32.85002 | -96.85423 | 468 ft | 36 kts | 8° |
| 2026-04-10 21:01 | 32.85220 | -96.85395 | 476 ft | 17 kts | 1° |
| 2026-04-10 21:01 | 32.85337 | -96.85416 | 472 ft | 19 kts | 323° |
| 2026-04-10 21:01 | 32.85466 | -96.85564 | 476 ft | 27 kts | 313° |
| 2026-04-10 21:01 | 32.85593 | -96.85714 | 473 ft | 25 kts | 314° |
| 2026-04-10 21:02 | 32.85650 | -96.85744 | 476 ft | 0 kts | 49° |
| 2026-04-10 21:04 | 32.85652 | -96.85741 | 476 ft | 5 kts | 49° |
| 2026-04-10 21:04 | 32.85644 | -96.85582 | 476 ft | 39 kts | 131° |
| 2026-04-10 21:04 | 32.85267 | -96.85176 | 511 ft | 109 kts | 138° |
| 2026-04-10 21:05 | 32.84634 | -96.84394 | 802 ft | 147 kts | 130° |
| 2026-04-10 21:05 | 32.84049 | -96.83303 | 1109 ft | 164 kts | 119° |
| 2026-04-10 21:05 | 32.83629 | -96.82001 | 1319 ft | 171 kts | 108° |
| 2026-04-10 21:05 | 32.83401 | -96.80637 | 1625 ft | 168 kts | 102° |
| 2026-04-10 21:06 | 32.83199 | -96.79257 | 1840 ft | 176 kts | 98° |
| 2026-04-10 21:06 | 32.83373 | -96.77862 | 2399 ft | 169 kts | 67° |
| 2026-04-10 21:06 | 32.84250 | -96.76908 | 2769 ft | 183 kts | 26° |
| 2026-04-10 21:06 | 32.85546 | -96.76690 | 3096 ft | 190 kts | 0° |
| 2026-04-10 21:07 | 32.86813 | -96.76715 | 3729 ft | 177 kts | 3° |
| 2026-04-10 21:07 | 32.88065 | -96.76767 | 4116 ft | 184 kts | 356° |
| 2026-04-10 21:07 | 32.89332 | -96.77052 | 4413 ft | 190 kts | 348° |
| 2026-04-10 21:07 | 32.90602 | -96.77419 | 4817 ft | 187 kts | 348° |
| 2026-04-10 21:08 | 32.91823 | -96.77975 | 5145 ft | 189 kts | 330° |
| 2026-04-10 21:08 | 32.92936 | -96.78800 | 5496 ft | 188 kts | 329° |
| 2026-04-10 21:08 | 32.94070 | -96.79568 | 5820 ft | 187 kts | 333° |
| 2026-04-10 21:08 | 32.95217 | -96.80268 | 6139 ft | 187 kts | 334° |
| 2026-04-10 21:09 | 32.96372 | -96.80968 | 6484 ft | 185 kts | 333° |
| 2026-04-10 21:09 | 32.97513 | -96.81664 | 6791 ft | 183 kts | 333° |
| 2026-04-10 21:09 | 32.98637 | -96.82352 | 7075 ft | 180 kts | 333° |
| 2026-04-10 21:09 | 32.99750 | -96.83031 | 7353 ft | 179 kts | 333° |
| 2026-04-10 21:10 | 33.00849 | -96.83705 | 7632 ft | 177 kts | 333° |
| 2026-04-10 21:10 | 33.01939 | -96.84371 | 7905 ft | 175 kts | 333° |
| 2026-04-10 21:10 | 33.03022 | -96.85034 | 7990 ft | 184 kts | 333° |
| 2026-04-10 21:10 | 33.04184 | -96.85742 | 7989 ft | 190 kts | 333° |
| 2026-04-10 21:11 | 33.05371 | -96.86468 | 7990 ft | 193 kts | 333° |
| 2026-04-10 21:11 | 33.06571 | -96.87202 | 7988 ft | 195 kts | 333° |
| 2026-04-10 21:11 | 33.07804 | -96.87958 | 7993 ft | 202 kts | 333° |
| 2026-04-10 21:11 | 33.09049 | -96.88719 | 7989 ft | 205 kts | 333° |
| 2026-04-10 21:12 | 33.10329 | -96.89503 | 7988 ft | 207 kts | 333° |
| 2026-04-10 21:12 | 33.11609 | -96.90287 | 7986 ft | 207 kts | 333° |
| 2026-04-10 21:12 | 33.12890 | -96.91074 | 7987 ft | 207 kts | 333° |
| 2026-04-10 21:12 | 33.14161 | -96.91853 | 7984 ft | 207 kts | 333° |
| 2026-04-10 21:13 | 33.15443 | -96.92641 | 7985 ft | 207 kts | 333° |
| 2026-04-10 21:13 | 33.16727 | -96.93428 | 7985 ft | 206 kts | 333° |
| 2026-04-10 21:13 | 33.18006 | -96.94214 | 7983 ft | 207 kts | 333° |
| 2026-04-10 21:13 | 33.19271 | -96.94991 | 7984 ft | 206 kts | 333° |
| 2026-04-10 21:14 | 33.20552 | -96.95780 | 7985 ft | 207 kts | 333° |
| 2026-04-10 21:14 | 33.21834 | -96.96566 | 7986 ft | 207 kts | 333° |
| 2026-04-10 21:14 | 33.22686 | -96.97091 | 7987 ft | 207 kts | 333° |
| 2026-04-10 21:15 | 33.25253 | -96.98669 | 7984 ft | 207 kts | 333° |
| 2026-04-10 21:15 | 33.26536 | -96.99459 | 7986 ft | 207 kts | 333° |
| 2026-04-10 21:15 | 33.27814 | -97.00247 | 7985 ft | 207 kts | 333° |
| 2026-04-10 21:15 | 33.29081 | -97.01025 | 7984 ft | 207 kts | 333° |
| 2026-04-10 21:16 | 33.30363 | -97.01816 | 7983 ft | 207 kts | 333° |
| 2026-04-10 21:16 | 33.31641 | -97.02604 | 7985 ft | 207 kts | 333° |
| 2026-04-10 21:16 | 33.32923 | -97.03394 | 7985 ft | 207 kts | 333° |
| 2026-04-10 21:16 | 33.34206 | -97.04186 | 7987 ft | 207 kts | 333° |
| 2026-04-10 21:17 | 33.35487 | -97.04975 | 7986 ft | 207 kts | 333° |
| 2026-04-10 21:17 | 33.36771 | -97.05767 | 7984 ft | 207 kts | 332° |
| 2026-04-10 21:17 | 33.38038 | -97.06550 | 7978 ft | 207 kts | 333° |
| 2026-04-10 21:17 | 33.39320 | -97.07343 | 7979 ft | 206 kts | 332° |
| 2026-04-10 21:18 | 33.40597 | -97.08130 | 7980 ft | 206 kts | 333° |
| 2026-04-10 21:18 | 33.41857 | -97.08908 | 7978 ft | 206 kts | 333° |
| 2026-04-10 21:18 | 33.43133 | -97.09699 | 7996 ft | 207 kts | 333° |
| 2026-04-10 21:18 | 33.44418 | -97.10473 | 7999 ft | 206 kts | 338° |
| 2026-04-10 21:19 | 33.45816 | -97.10786 | 8004 ft | 205 kts | 2° |
| 2026-04-10 21:19 | 33.47231 | -97.10626 | 8005 ft | 204 kts | 8° |
| 2026-04-10 21:19 | 33.48646 | -97.10449 | 8008 ft | 204 kts | 8° |
| 2026-04-10 21:19 | 33.50064 | -97.10272 | 8010 ft | 205 kts | 8° |
| 2026-04-10 21:20 | 33.51466 | -97.10094 | 8009 ft | 205 kts | 8° |
| 2026-04-10 21:20 | 33.52885 | -97.09915 | 8014 ft | 205 kts | 8° |
| 2026-04-10 21:20 | 33.54306 | -97.09735 | 8016 ft | 205 kts | 8° |
| 2026-04-10 21:20 | 33.55717 | -97.09557 | 8018 ft | 206 kts | 8° |
| 2026-04-10 21:21 | 33.57148 | -97.09375 | 8019 ft | 206 kts | 8° |
| 2026-04-10 21:21 | 33.58579 | -97.09193 | 8020 ft | 206 kts | 8° |
| 2026-04-10 21:21 | 33.59982 | -97.09015 | 8019 ft | 205 kts | 8° |
| 2026-04-10 21:21 | 33.61404 | -97.08836 | 8021 ft | 205 kts | 8° |
| 2026-04-10 21:22 | 33.62825 | -97.08656 | 8022 ft | 205 kts | 8° |
| 2026-04-10 21:22 | 33.64247 | -97.08476 | 8023 ft | 205 kts | 8° |
| 2026-04-10 21:22 | 33.65669 | -97.08296 | 8021 ft | 205 kts | 8° |
| 2026-04-10 21:22 | 33.67078 | -97.08118 | 8023 ft | 206 kts | 8° |
| 2026-04-10 21:23 | 33.68503 | -97.07937 | 8020 ft | 206 kts | 8° |
| 2026-04-10 21:23 | 33.69936 | -97.07754 | 8019 ft | 206 kts | 8° |
| 2026-04-10 21:23 | 33.71366 | -97.07572 | 8009 ft | 206 kts | 7° |
| 2026-04-10 21:23 | 33.72789 | -97.07392 | 8009 ft | 205 kts | 7° |
| 2026-04-10 21:24 | 33.74195 | -97.07213 | 8005 ft | 205 kts | 7° |
| 2026-04-10 21:24 | 33.75619 | -97.07033 | 8002 ft | 205 kts | 7° |
| 2026-04-10 21:24 | 33.77049 | -97.06851 | 7998 ft | 206 kts | 8° |
| 2026-04-10 21:24 | 33.78478 | -97.06669 | 8002 ft | 206 kts | 8° |
| 2026-04-10 21:25 | 33.79888 | -97.06488 | 7999 ft | 206 kts | 8° |
| 2026-04-10 21:25 | 33.81318 | -97.06308 | 7997 ft | 206 kts | 8° |
| 2026-04-10 21:25 | 33.82747 | -97.06125 | 7996 ft | 206 kts | 8° |
| 2026-04-10 21:25 | 33.84179 | -97.05944 | 7993 ft | 206 kts | 8° |
| 2026-04-10 21:26 | 33.85607 | -97.05762 | 7991 ft | 206 kts | 7° |
| 2026-04-10 21:26 | 33.87023 | -97.05581 | 7984 ft | 206 kts | 7° |
| 2026-04-10 21:26 | 33.88454 | -97.05399 | 7984 ft | 206 kts | 7° |
| 2026-04-10 21:26 | 33.89883 | -97.05218 | 7983 ft | 206 kts | 7° |
| 2026-04-10 21:27 | 33.91311 | -97.05035 | 7980 ft | 206 kts | 7° |
| 2026-04-10 21:27 | 33.92719 | -97.04854 | 7979 ft | 206 kts | 7° |
| 2026-04-10 21:27 | 33.94150 | -97.04671 | 7977 ft | 206 kts | 7° |
| 2026-04-10 21:27 | 33.95582 | -97.04488 | 7973 ft | 206 kts | 7° |
| 2026-04-10 21:28 | 33.97013 | -97.04308 | 7969 ft | 206 kts | 7° |
| 2026-04-10 21:28 | 33.98424 | -97.04126 | 7972 ft | 206 kts | 7° |
| 2026-04-10 21:28 | 33.99858 | -97.03943 | 7973 ft | 207 kts | 7° |
| 2026-04-10 21:28 | 34.01287 | -97.03761 | 7971 ft | 206 kts | 7° |
| 2026-04-10 21:29 | 34.02709 | -97.03578 | 7969 ft | 205 kts | 7° |
| 2026-04-10 21:29 | 34.04134 | -97.03396 | 7973 ft | 205 kts | 7° |
| 2026-04-10 21:29 | 34.05538 | -97.03217 | 7974 ft | 205 kts | 7° |
| 2026-04-10 21:29 | 34.06956 | -97.03036 | 7973 ft | 205 kts | 7° |
| 2026-04-10 21:30 | 34.08375 | -97.02853 | 7977 ft | 204 kts | 7° |
| 2026-04-10 21:30 | 34.09786 | -97.02672 | 7978 ft | 204 kts | 7° |
| 2026-04-10 21:30 | 34.11199 | -97.02492 | 7980 ft | 204 kts | 7° |
| 2026-04-10 21:30 | 34.12614 | -97.02309 | 7978 ft | 204 kts | 7° |
| 2026-04-10 21:31 | 34.14012 | -97.02131 | 7981 ft | 204 kts | 7° |
| 2026-04-10 21:31 | 34.15435 | -97.01948 | 7983 ft | 205 kts | 7° |
| 2026-04-10 21:31 | 34.16856 | -97.01766 | 7983 ft | 204 kts | 7° |
| 2026-04-10 21:31 | 34.18273 | -97.01584 | 7983 ft | 204 kts | 7° |
| 2026-04-10 21:32 | 34.19689 | -97.01402 | 7984 ft | 204 kts | 7° |
| 2026-04-10 21:32 | 34.21089 | -97.01222 | 7986 ft | 204 kts | 7° |
| 2026-04-10 21:32 | 34.22503 | -97.01042 | 7985 ft | 204 kts | 7° |
| 2026-04-10 21:32 | 34.23917 | -97.00860 | 7987 ft | 204 kts | 7° |
| 2026-04-10 21:33 | 34.25335 | -97.00676 | 7988 ft | 205 kts | 7° |
| 2026-04-10 21:33 | 34.26755 | -97.00495 | 7987 ft | 205 kts | 7° |
| 2026-04-10 21:33 | 34.28175 | -97.00312 | 7987 ft | 205 kts | 7° |
| 2026-04-10 21:33 | 34.29577 | -97.00130 | 7984 ft | 205 kts | 7° |
| 2026-04-10 21:34 | 34.31002 | -96.99947 | 7985 ft | 205 kts | 7° |
| 2026-04-10 21:34 | 34.32424 | -96.99765 | 7986 ft | 205 kts | 7° |
| 2026-04-10 21:34 | 34.33845 | -96.99582 | 7983 ft | 205 kts | 6° |
| 2026-04-10 21:34 | 34.35248 | -96.99400 | 7986 ft | 204 kts | 7° |
| 2026-04-10 21:35 | 34.36667 | -96.99218 | 7984 ft | 205 kts | 7° |
| 2026-04-10 21:35 | 34.38090 | -96.99133 | 7978 ft | 204 kts | 352° |
| 2026-04-10 21:35 | 34.39436 | -96.99657 | 7981 ft | 202 kts | 331° |
| 2026-04-10 21:35 | 34.40665 | -97.00450 | 7982 ft | 203 kts | 330° |
| 2026-04-10 21:36 | 34.41919 | -97.01247 | 7979 ft | 203 kts | 330° |
| 2026-04-10 21:36 | 34.43175 | -97.02044 | 7977 ft | 203 kts | 330° |
| 2026-04-10 21:36 | 34.44427 | -97.02844 | 7981 ft | 203 kts | 330° |
| 2026-04-10 21:36 | 34.45665 | -97.03634 | 7984 ft | 204 kts | 331° |
| 2026-04-10 21:37 | 34.46921 | -97.04434 | 7982 ft | 204 kts | 330° |
| 2026-04-10 21:37 | 34.48174 | -97.05234 | 7979 ft | 203 kts | 330° |
| 2026-04-10 21:37 | 34.49428 | -97.06035 | 7980 ft | 203 kts | 331° |
| 2026-04-10 21:37 | 34.50676 | -97.06831 | 7976 ft | 202 kts | 330° |
| 2026-04-10 21:38 | 34.51915 | -97.07624 | 7971 ft | 203 kts | 330° |
| 2026-04-10 21:38 | 34.53166 | -97.08425 | 7988 ft | 203 kts | 330° |
| 2026-04-10 21:38 | 34.54416 | -97.09222 | 7988 ft | 202 kts | 330° |
| 2026-04-10 21:38 | 34.55648 | -97.10009 | 7991 ft | 202 kts | 330° |
| 2026-04-10 21:39 | 34.56894 | -97.10807 | 7994 ft | 202 kts | 331° |
| 2026-04-10 21:39 | 34.58141 | -97.11605 | 7998 ft | 203 kts | 330° |
| 2026-04-10 21:39 | 34.59385 | -97.12401 | 8001 ft | 202 kts | 330° |
| 2026-04-10 21:39 | 34.60635 | -97.13202 | 8004 ft | 202 kts | 330° |
| 2026-04-10 21:40 | 34.61884 | -97.14002 | 8006 ft | 202 kts | 330° |
| 2026-04-10 21:40 | 34.63115 | -97.14791 | 8012 ft | 202 kts | 330° |
| 2026-04-10 21:40 | 34.64365 | -97.15593 | 8013 ft | 202 kts | 331° |
| 2026-04-10 21:40 | 34.65613 | -97.16392 | 8011 ft | 202 kts | 330° |
| 2026-04-10 21:41 | 34.66847 | -97.17184 | 8012 ft | 203 kts | 330° |
| 2026-04-10 21:41 | 34.68097 | -97.17986 | 8010 ft | 203 kts | 330° |
| 2026-04-10 21:41 | 34.69345 | -97.18788 | 8017 ft | 202 kts | 331° |
| 2026-04-10 21:41 | 34.70590 | -97.19586 | 8038 ft | 202 kts | 331° |
| 2026-04-10 21:42 | 34.71816 | -97.20376 | 8032 ft | 202 kts | 331° |
| 2026-04-10 21:42 | 34.73060 | -97.21173 | 8035 ft | 202 kts | 330° |
| 2026-04-10 21:42 | 34.74308 | -97.21974 | 8034 ft | 202 kts | 330° |
| 2026-04-10 21:42 | 34.75553 | -97.22776 | 8036 ft | 202 kts | 330° |
| 2026-04-10 21:43 | 34.76797 | -97.23577 | 8037 ft | 202 kts | 330° |
| 2026-04-10 21:43 | 34.78040 | -97.24377 | 8036 ft | 202 kts | 330° |
| 2026-04-10 21:43 | 34.79246 | -97.25267 | 7947 ft | 206 kts | 326° |
| 2026-04-10 21:43 | 34.80467 | -97.26176 | 7723 ft | 203 kts | 327° |
| 2026-04-10 21:44 | 34.81661 | -97.27062 | 7571 ft | 198 kts | 327° |
| 2026-04-10 21:44 | 34.82830 | -97.27937 | 7416 ft | 196 kts | 327° |
| 2026-04-10 21:44 | 34.83980 | -97.28799 | 7270 ft | 196 kts | 327° |
| 2026-04-10 21:44 | 34.85145 | -97.29671 | 7121 ft | 196 kts | 327° |
| 2026-04-10 21:45 | 34.86305 | -97.30539 | 7030 ft | 193 kts | 327° |
| 2026-04-10 21:45 | 34.87434 | -97.31385 | 7024 ft | 189 kts | 327° |
| 2026-04-10 21:45 | 34.88547 | -97.32220 | 7018 ft | 187 kts | 327° |
| 2026-04-10 21:45 | 34.89645 | -97.33042 | 7011 ft | 187 kts | 327° |
| 2026-04-10 21:46 | 34.90749 | -97.33879 | 7005 ft | 186 kts | 326° |
| 2026-04-10 21:46 | 34.91855 | -97.34722 | 6965 ft | 188 kts | 326° |
| 2026-04-10 21:46 | 34.92975 | -97.35575 | 6886 ft | 191 kts | 326° |
| 2026-04-10 21:46 | 34.94106 | -97.36435 | 6787 ft | 192 kts | 326° |
| 2026-04-10 21:47 | 34.95227 | -97.37288 | 6696 ft | 193 kts | 327° |
| 2026-04-10 21:47 | 34.96370 | -97.38158 | 6601 ft | 193 kts | 326° |
| 2026-04-10 21:47 | 34.97506 | -97.39024 | 6488 ft | 193 kts | 327° |
| 2026-04-10 21:47 | 34.98646 | -97.39891 | 6385 ft | 193 kts | 326° |
| 2026-04-10 21:48 | 34.99785 | -97.40760 | 6289 ft | 193 kts | 326° |
| 2026-04-10 21:48 | 35.00930 | -97.41633 | 6188 ft | 194 kts | 326° |
| 2026-04-10 21:48 | 35.02062 | -97.42495 | 6095 ft | 195 kts | 326° |
| 2026-04-10 21:48 | 35.03218 | -97.43378 | 5998 ft | 196 kts | 327° |
| 2026-04-10 21:49 | 35.04365 | -97.44253 | 5984 ft | 192 kts | 326° |
| 2026-04-10 21:49 | 35.05490 | -97.45113 | 5982 ft | 189 kts | 327° |
| 2026-04-10 21:49 | 35.06606 | -97.45965 | 5980 ft | 189 kts | 326° |
| 2026-04-10 21:49 | 35.07797 | -97.46633 | 5980 ft | 190 kts | 348° |
| 2026-04-10 21:50 | 35.09097 | -97.46763 | 5961 ft | 191 kts | 358° |
| 2026-04-10 21:50 | 35.10444 | -97.46849 | 5842 ft | 196 kts | 358° |
| 2026-04-10 21:50 | 35.11825 | -97.46941 | 5652 ft | 200 kts | 358° |
| 2026-04-10 21:50 | 35.13227 | -97.47031 | 5462 ft | 202 kts | 358° |
| 2026-04-10 21:51 | 35.14629 | -97.47121 | 5273 ft | 204 kts | 358° |
| 2026-04-10 21:51 | 35.16057 | -97.47213 | 5086 ft | 205 kts | 358° |
| 2026-04-10 21:51 | 35.17480 | -97.47305 | 4993 ft | 202 kts | 358° |
| 2026-04-10 21:51 | 35.18867 | -97.47396 | 4988 ft | 197 kts | 358° |
| 2026-04-10 21:52 | 35.20223 | -97.47482 | 4867 ft | 200 kts | 358° |
| 2026-04-10 21:52 | 35.21627 | -97.47571 | 4661 ft | 203 kts | 359° |
| 2026-04-10 21:52 | 35.23042 | -97.47661 | 4467 ft | 203 kts | 358° |
| 2026-04-10 21:52 | 35.24455 | -97.47751 | 4272 ft | 203 kts | 359° |
| 2026-04-10 21:53 | 35.25866 | -97.47842 | 4079 ft | 203 kts | 358° |
| 2026-04-10 21:53 | 35.27253 | -97.47931 | 3992 ft | 198 kts | 358° |
| 2026-04-10 21:53 | 35.28616 | -97.48022 | 3981 ft | 194 kts | 358° |
| 2026-04-10 21:53 | 35.29957 | -97.48106 | 3982 ft | 192 kts | 358° |
| 2026-04-10 21:54 | 35.31316 | -97.48194 | 3837 ft | 200 kts | 358° |
| 2026-04-10 21:54 | 35.32733 | -97.48285 | 3621 ft | 205 kts | 358° |
| 2026-04-10 21:54 | 35.34137 | -97.48376 | 3569 ft | 199 kts | 358° |
| 2026-04-10 21:54 | 35.35483 | -97.48464 | 3769 ft | 190 kts | 357° |
| 2026-04-10 21:55 | 35.36788 | -97.48551 | 3957 ft | 185 kts | 358° |
| 2026-04-10 21:55 | 35.38095 | -97.48634 | 3988 ft | 190 kts | 358° |
| 2026-04-10 21:55 | 35.39411 | -97.48668 | 3991 ft | 192 kts | 2° |
| 2026-04-10 21:55 | 35.40764 | -97.48661 | 3993 ft | 195 kts | 1° |
| 2026-04-10 21:56 | 35.42124 | -97.48669 | 3995 ft | 196 kts | 1° |
| 2026-04-10 21:56 | 35.43486 | -97.48674 | 3993 ft | 196 kts | 2° |
| 2026-04-10 21:56 | 35.44851 | -97.48676 | 3987 ft | 196 kts | 2° |
| 2026-04-10 21:56 | 35.46214 | -97.48677 | 3996 ft | 196 kts | 1° |
| 2026-04-10 21:57 | 35.47564 | -97.48678 | 3995 ft | 195 kts | 2° |
| 2026-04-10 21:57 | 35.48921 | -97.48676 | 3992 ft | 194 kts | 1° |
| 2026-04-10 21:57 | 35.50267 | -97.48676 | 3992 ft | 194 kts | 1° |
| 2026-04-10 21:57 | 35.51554 | -97.49072 | 3971 ft | 193 kts | 325° |
| 2026-04-10 21:58 | 35.52334 | -97.50355 | 3972 ft | 188 kts | 283° |
| 2026-04-10 21:58 | 35.52547 | -97.51903 | 3975 ft | 186 kts | 274° |
| 2026-04-10 21:58 | 35.52708 | -97.53490 | 3977 ft | 186 kts | 274° |
| 2026-04-10 21:58 | 35.52853 | -97.55046 | 3979 ft | 185 kts | 274° |
| 2026-04-10 21:59 | 35.52993 | -97.56625 | 3979 ft | 186 kts | 273° |
| 2026-04-10 21:59 | 35.53120 | -97.58206 | 3981 ft | 185 kts | 264° |
| 2026-04-10 21:59 | 35.52656 | -97.59602 | 3963 ft | 176 kts | 222° |
| 2026-04-10 21:59 | 35.51611 | -97.60277 | 3975 ft | 170 kts | 195° |
| 2026-04-10 22:00 | 35.50463 | -97.60325 | 3969 ft | 167 kts | 160° |
| 2026-04-10 22:00 | 35.49391 | -97.59726 | 3852 ft | 170 kts | 156° |
| 2026-04-10 22:00 | 35.48226 | -97.59186 | 3305 ft | 186 kts | 163° |
| 2026-04-10 22:00 | 35.47016 | -97.58877 | 3004 ft | 159 kts | 172° |
| 2026-04-10 22:01 | 35.46008 | -97.58840 | 2684 ft | 134 kts | 179° |
| 2026-04-10 22:01 | 35.45122 | -97.58859 | 2391 ft | 120 kts | 179° |
| 2026-04-10 22:01 | 35.44321 | -97.58902 | 2201 ft | 112 kts | 176° |
| 2026-04-10 22:01 | 35.43812 | -97.58896 | 2055 ft | 111 kts | 176° |
| 2026-04-10 22:02 | 35.42806 | -97.58836 | 1881 ft | 106 kts | 178° |
| 2026-04-10 22:02 | 35.42069 | -97.58855 | 1705 ft | 107 kts | 182° |
| 2026-04-10 22:02 | 35.41575 | -97.58865 | 1598 ft | 107 kts | 181° |
| 2026-04-10 22:02 | 35.40852 | -97.58884 | 1408 ft | 101 kts | 181° |
| 2026-04-10 22:03 | 35.40200 | -97.58893 | 1291 ft | 80 kts | 179° |
| 2026-04-10 22:03 | 35.39783 | -97.58891 | 1285 ft | 32 kts | 156° |
| 2026-04-10 22:03 | 35.39716 | -97.58776 | 1283 ft | 0 kts | 94° |
| 2026-04-10 22:04 | 35.39718 | -97.58721 | 1283 ft | 21 kts | 92° |
| 2026-04-10 22:04 | 35.39648 | -97.58589 | 1282 ft | 18 kts | 174° |
| 2026-04-10 22:04 | 35.39583 | -97.58592 | 1282 ft | 3 kts | 47° |
| 2026-04-10 22:04 | 35.39603 | -97.58588 | 1282 ft | 5 kts | 359° |
| 2026-04-10 22:05 | 35.39609 | -97.58588 | 1282 ft | 0 kts | 359° |